Time;durP1;ratioP1;P1;durP2;ratioP2;P2;SDS_P1;SDS_P2;PMS_P1;PMS_P2;Temp;Humidity;BMP_temperature;BMP_pressure;BME280_temperature;BME280_humidity;BME280_pressure;Samples;Min_cycle;Max_cycle;Signal;HPM_P1;HPM_P2
2023/03/15 00:00:24;;;;;;;20.67;11.13;;;;;;;3.39;57.70;99820.73;124889;1099;104319;-73
2023/03/15 00:03:16;;;;;;;23.23;10.70;;;;;;;3.38;58.61;99819.86;124682;1099;104267;-73
2023/03/15 00:05:48;;;;;;;22.00;10.73;;;;;;;3.36;59.31;99821.45;124632;1099;104278;-73
2023/03/15 00:08:21;;;;;;;23.20;12.10;;;;;;;3.32;59.20;99824.72;124708;1099;102249;-73
2023/03/15 00:10:52;;;;;;;22.87;11.80;;;;;;;3.31;58.84;99822.05;124624;1099;104185;-74
2023/03/15 00:13:24;;;;;;;21.73;11.70;;;;;;;3.30;59.30;99835.80;125779;1098;101887;-72
2023/03/15 00:15:59;;;;;;;24.43;11.63;;;;;;;3.27;60.08;99831.33;124576;1099;101868;-73
2023/03/15 00:18:30;;;;;;;23.33;11.67;;;;;;;3.24;58.26;99832.08;125902;1098;101928;-73
2023/03/15 00:21:02;;;;;;;22.33;12.00;;;;;;;3.24;58.48;99826.89;124669;1099;104235;-73
2023/03/15 00:23:33;;;;;;;23.00;11.53;;;;;;;3.24;57.90;99823.39;124668;1099;104357;-73
2023/03/15 00:26:04;;;;;;;22.37;11.70;;;;;;;3.23;58.49;99832.87;124646;1099;101920;-74
2023/03/15 00:28:36;;;;;;;22.20;10.57;;;;;;;3.23;57.72;99819.91;125916;1098;104271;-74
2023/03/15 00:31:13;;;;;;;18.83;9.90;;;;;;;3.22;58.19;99818.13;124717;1098;104179;-73
2023/03/15 00:33:44;;;;;;;22.03;10.63;;;;;;;3.23;58.60;99808.66;124825;1099;104169;-74
2023/03/15 00:36:16;;;;;;;23.43;11.10;;;;;;;3.24;58.29;99807.83;124683;1099;104227;-73
2023/03/15 00:38:47;;;;;;;22.57;10.07;;;;;;;3.27;58.10;99814.89;124648;1099;104200;-73
2023/03/15 00:41:21;;;;;;;22.87;10.40;;;;;;;3.22;58.11;99799.97;124688;1098;104239;-73
2023/03/15 00:43:52;;;;;;;21.50;10.43;;;;;;;3.22;57.67;99805.16;124667;1099;104166;-73
2023/03/15 00:46:23;;;;;;;21.53;10.07;;;;;;;3.22;58.45;99793.91;124727;1099;101961;-73
2023/03/15 00:48:54;;;;;;;22.53;10.23;;;;;;;3.21;57.76;99795.62;125012;1099;104323;-73
2023/03/15 00:51:26;;;;;;;20.97;10.60;;;;;;;3.19;58.65;99796.33;124596;1097;104169;-73
2023/03/15 00:53:57;;;;;;;21.13;9.63;;;;;;;3.16;58.04;99791.86;125919;1098;101980;-73
2023/03/15 00:56:32;;;;;;;19.60;9.90;;;;;;;3.15;58.12;99795.28;124634;1099;102046;-75
2023/03/15 00:59:06;;;;;;;19.87;10.00;;;;;;;3.16;58.77;99796.16;124833;1098;104166;-73
2023/03/15 01:01:39;;;;;;;20.50;9.63;;;;;;;3.14;59.01;99800.39;124975;1098;101988;-73
2023/03/15 01:04:11;;;;;;;22.93;9.98;;;;;;;3.13;59.73;99803.77;124590;1099;104238;-73
2023/03/15 01:06:43;;;;;;;20.53;9.43;;;;;;;3.09;60.44;99792.36;124573;1099;104295;-73
2023/03/15 01:09:14;;;;;;;20.20;9.33;;;;;;;3.05;60.21;99792.99;124548;1099;102078;-73
2023/03/15 01:11:45;;;;;;;20.03;9.10;;;;;;;3.02;60.37;99790.23;124672;1098;101800;-74
2023/03/15 01:14:17;;;;;;;20.27;10.13;;;;;;;2.99;59.49;99785.80;124599;1099;101934;-74
2023/03/15 01:16:49;;;;;;;23.70;9.87;;;;;;;2.98;59.21;99777.94;124578;1098;104325;-74
2023/03/15 01:19:20;;;;;;;20.40;8.77;;;;;;;2.97;59.47;99770.95;124598;1099;102380;-73
2023/03/15 01:21:52;;;;;;;18.97;8.90;;;;;;;2.97;59.72;99769.25;124617;1099;103729;-74
2023/03/15 01:24:23;;;;;;;21.40;9.50;;;;;;;2.97;59.73;99761.47;124617;1099;104322;-73
2023/03/15 01:26:54;;;;;;;18.90;9.17;;;;;;;2.97;60.27;99758.00;124611;1099;104233;-73
2023/03/15 01:29:26;;;;;;;19.17;8.97;;;;;;;2.98;59.42;99762.38;124574;1099;104205;-74
2023/03/15 01:31:57;;;;;;;20.50;8.67;;;;;;;2.99;59.45;99757.28;124622;1099;104249;-73
2023/03/15 01:34:29;;;;;;;22.07;8.87;;;;;;;2.99;60.26;99741.73;124611;1098;104274;-73
2023/03/15 01:37:01;;;;;;;19.47;9.07;;;;;;;2.98;59.82;99741.65;125256;1099;104162;-74
2023/03/15 01:39:37;;;;;;;20.77;9.00;;;;;;;2.96;59.44;99738.06;124643;1099;104245;-73
2023/03/15 01:42:09;;;;;;;21.43;9.33;;;;;;;2.95;59.45;99744.08;124615;1099;104173;-73
2023/03/15 01:44:55;;;;;;;19.30;9.37;;;;;;;2.93;59.87;99750.86;124612;1099;104287;-73
2023/03/15 01:47:27;;;;;;;23.63;9.17;;;;;;;2.88;59.65;99742.83;125771;1099;104181;-73
2023/03/15 01:50:06;;;;;;;17.40;8.38;;;;;;;2.85;62.17;99740.08;124596;1099;102061;-73
2023/03/15 01:52:41;;;;;;;20.13;8.97;;;;;;;2.83;60.56;99739.98;124564;1099;104357;-73
2023/03/15 01:55:20;;;;;;;18.20;8.13;;;;;;;2.83;60.75;99739.98;124515;1099;104169;-74
2023/03/15 01:58:14;;;;;;;18.57;8.68;;;;;;;2.85;61.30;99738.39;124417;1099;104166;-73
2023/03/15 02:00:47;;;;;;;19.65;8.80;;;;;;;2.91;60.33;99734.34;124536;1099;104201;-73
2023/03/15 02:03:23;;;;;;;19.77;9.30;;;;;;;2.97;60.90;99732.08;124624;1099;101942;-73
2023/03/15 02:06:00;;;;;;;20.77;8.63;;;;;;;3.04;61.06;99734.20;124600;1098;104290;-73
2023/03/15 02:08:53;;;;;;;17.70;8.17;;;;;;;3.16;63.16;99742.60;124623;1099;104226;-73
2023/03/15 02:11:27;;;;;;;19.60;8.90;;;;;;;3.20;62.23;99741.97;124602;1099;101921;-73
2023/03/15 02:14:00;;;;;;;16.10;8.07;;;;;;;3.25;61.67;99734.43;124510;1099;104427;-73
2023/03/15 02:16:31;;;;;;;15.23;7.97;;;;;;;3.30;61.15;99739.86;124587;1099;104182;-73
2023/03/15 02:19:06;;;;;;;17.90;8.53;;;;;;;3.36;62.08;99735.88;124544;1099;104262;-73
2023/03/15 02:21:51;;;;;;;17.90;8.73;;;;;;;3.40;62.64;99736.95;124556;1099;104238;-73
2023/03/15 02:24:34;;;;;;;18.03;8.60;;;;;;;3.47;61.63;99735.55;124618;1099;102064;-73
2023/03/15 02:27:06;;;;;;;23.90;8.73;;;;;;;3.51;62.68;99738.38;124604;1099;104345;-74
2023/03/15 02:29:37;;;;;;;18.47;8.57;;;;;;;3.53;61.82;99739.34;124734;1099;101826;-73
2023/03/15 02:32:09;;;;;;;26.17;10.57;;;;;;;3.58;61.65;99736.98;124612;1098;117941;-73
2023/03/15 02:34:40;;;;;;;23.47;9.47;;;;;;;3.60;62.71;99735.38;124532;1099;104249;-73
2023/03/15 02:37:13;;;;;;;24.17;9.77;;;;;;;3.62;62.66;99738.94;124587;1099;104255;-73
2023/03/15 02:39:44;;;;;;;20.63;8.97;;;;;;;3.66;62.54;99742.56;124703;1099;104281;-74
2023/03/15 02:42:19;;;;;;;21.97;9.37;;;;;;;3.68;61.91;99739.25;124774;1099;104153;-74
2023/03/15 02:44:51;;;;;;;20.17;9.38;;;;;;;3.73;62.29;99744.67;124788;1099;104211;-75
2023/03/15 02:47:27;;;;;;;21.13;9.03;;;;;;;3.74;62.05;99744.75;124814;1098;104328;-74
2023/03/15 02:49:58;;;;;;;21.60;10.00;;;;;;;3.77;61.82;99742.31;124812;1099;104245;-74
2023/03/15 02:52:29;;;;;;;23.90;9.37;;;;;;;3.80;62.84;99756.25;124796;1098;104181;-74
2023/03/15 02:55:02;;;;;;;23.43;10.07;;;;;;;3.81;63.27;99758.05;124792;1099;104245;-75
2023/03/15 02:57:33;;;;;;;22.17;9.17;;;;;;;3.80;63.64;99746.75;124702;1099;104198;-74
2023/03/15 03:00:13;;;;;;;21.20;9.27;;;;;;;3.80;63.48;99741.55;124641;1098;104316;-73
2023/03/15 03:02:47;;;;;;;19.13;8.37;;;;;;;3.81;62.94;99740.75;124725;1099;101846;-74
2023/03/15 03:05:21;;;;;;;;;;;;;;;3.81;65.95;99738.16;124651;1098;104236;-75
2023/03/15 03:07:53;;;;;;;14.70;7.00;;;;;;;3.79;65.71;99744.98;124635;1099;101874;-74
2023/03/15 03:10:26;;;;;;;15.50;7.53;;;;;;;3.79;63.83;99755.37;124687;1099;102804;-75
2023/03/15 03:13:00;;;;;;;16.17;7.83;;;;;;;3.81;64.34;99743.35;124399;1099;108791;-74
2023/03/15 03:15:37;;;;;;;18.63;7.90;;;;;;;3.85;63.95;99744.39;124661;1099;104169;-73
2023/03/15 03:18:11;;;;;;;16.45;7.40;;;;;;;3.81;65.46;99735.56;124661;1099;101827;-74
2023/03/15 03:20:45;;;;;;;18.37;7.77;;;;;;;3.76;65.03;99735.33;124834;1098;104242;-75
2023/03/15 03:23:17;;;;;;;16.90;8.00;;;;;;;3.78;65.20;99740.60;124638;1098;117836;-73
2023/03/15 03:25:48;;;;;;;18.67;7.87;;;;;;;3.77;65.02;99734.53;124635;1099;104211;-74
2023/03/15 03:28:20;;;;;;;16.30;7.80;;;;;;;3.80;64.39;99735.48;124786;1099;104182;-74
2023/03/15 03:30:53;;;;;;;15.63;7.40;;;;;;;3.83;64.39;99730.45;124765;1099;101877;-74
2023/03/15 03:33:25;;;;;;;18.03;8.00;;;;;;;3.86;66.12;99733.20;124251;1099;101981;-74
2023/03/15 03:36:02;;;;;;;16.60;7.47;;;;;;;3.85;66.72;99732.32;124249;1099;104308;-74
2023/03/15 03:38:34;;;;;;;17.83;7.43;;;;;;;3.84;65.54;99738.31;124609;1099;104412;-73
2023/03/15 03:41:06;;;;;;;15.97;7.37;;;;;;;3.85;65.48;99734.00;124384;1099;104249;-73
2023/03/15 03:43:38;;;;;;;16.90;7.30;;;;;;;3.86;65.63;99735.80;124280;1100;104236;-73
2023/03/15 03:46:09;;;;;;;16.93;7.53;;;;;;;3.84;65.16;99742.63;124382;1099;101919;-75
2023/03/15 03:48:43;;;;;;;21.37;8.20;;;;;;;3.85;66.23;99732.32;125034;1099;104371;-74
2023/03/15 03:51:15;;;;;;;17.67;7.80;;;;;;;3.86;66.16;99736.67;124684;1099;101890;-73
2023/03/15 03:53:46;;;;;;;14.95;6.70;;;;;;;3.89;66.23;99736.83;124385;1099;104178;-73
2023/03/15 03:56:17;;;;;;;19.90;7.93;;;;;;;3.90;66.36;99742.94;124642;1099;102440;-74
2023/03/15 03:58:48;;;;;;;15.03;6.97;;;;;;;3.92;67.36;99742.17;124702;1099;104184;-74
2023/03/15 04:01:24;;;;;;;14.60;7.33;;;;;;;3.91;66.24;99743.02;124362;1099;104505;-73
2023/03/15 04:03:57;;;;;;;16.97;7.43;;;;;;;3.91;65.97;99744.69;124809;1099;102047;-74
2023/03/15 04:06:31;;;;;;;17.10;7.30;;;;;;;3.93;67.24;99738.78;124930;1099;101891;-76
2023/03/15 04:09:03;;;;;;;17.45;8.05;;;;;;;3.95;66.54;99731.95;124783;1099;104264;-74
2023/03/15 04:11:43;;;;;;;14.33;7.20;;;;;;;3.99;66.56;99733.02;124497;1099;104191;-74
2023/03/15 04:14:15;;;;;;;16.75;7.45;;;;;;;4.02;66.28;99734.84;124397;1099;102285;-74
2023/03/15 04:16:48;;;;;;;17.23;7.67;;;;;;;4.03;66.69;99734.92;124369;1099;104175;-73
2023/03/15 04:19:23;;;;;;;15.40;6.83;;;;;;;4.04;67.10;99728.05;124811;1099;104233;-73
2023/03/15 04:21:55;;;;;;;17.73;7.77;;;;;;;4.02;66.70;99727.97;124362;1099;104300;-74
2023/03/15 04:24:49;;;;;;;16.97;6.97;;;;;;;4.03;65.76;99731.45;124411;1099;104242;-74
2023/03/15 04:27:40;;;;;;;14.73;6.58;;;;;;;4.06;66.22;99734.20;124852;1098;104185;-74
2023/03/15 04:30:34;;;;;;;14.17;6.80;;;;;;;4.08;65.88;99743.86;124794;1099;104217;-74
2023/03/15 04:33:26;;;;;;;15.73;7.23;;;;;;;4.10;65.69;99743.93;124601;1099;102030;-74
2023/03/15 04:36:18;;;;;;;16.03;6.57;;;;;;;4.11;67.15;99736.22;124796;1098;101907;-74
2023/03/15 04:39:11;;;;;;;14.87;6.83;;;;;;;4.14;66.10;99738.97;124528;1099;102037;-76
2023/03/15 04:42:10;;;;;;;16.40;7.17;;;;;;;4.18;66.10;99741.71;124776;1099;104345;-77
2023/03/15 04:45:05;;;;;;;15.23;7.33;;;;;;;4.21;66.25;99744.45;124645;1099;104280;-75
2023/03/15 04:48:01;;;;;;;18.27;6.70;;;;;;;4.24;66.14;99748.08;124573;1099;102379;-74
2023/03/15 04:50:48;;;;;;;15.40;7.27;;;;;;;4.28;65.31;99747.40;124403;1099;104693;-75
2023/03/15 04:53:25;;;;;;;18.67;7.60;;;;;;;4.33;65.94;99739.83;124434;1099;104377;-75
2023/03/15 04:55:56;;;;;;;16.80;7.40;;;;;;;4.37;66.43;99739.17;124768;1099;104182;-74
2023/03/15 04:59:07;;;;;;;15.53;7.60;;;;;;;4.42;67.58;99718.61;123926;1102;104425;-73
2023/03/15 05:01:53;;;;;;;16.83;7.43;;;;;;;4.45;66.71;99723.95;124140;1102;101984;-72
2023/03/15 05:04:34;;;;;;;16.43;7.53;;;;;;;4.50;66.58;99717.26;124368;1099;104274;-72
2023/03/15 05:07:28;;;;;;;17.92;8.43;;;;;;;4.57;66.33;99714.14;124588;1099;104217;-74
2023/03/15 05:10:19;;;;;;;14.60;7.33;;;;;;;4.64;67.44;99717.91;124965;1099;104268;-73
2023/03/15 05:13:11;;;;;;;18.30;7.20;;;;;;;4.70;66.74;99733.80;124387;1099;104306;-72
2023/03/15 05:16:14;;;;;;;12.37;6.63;;;;;;;4.74;66.84;99732.25;124691;1099;104191;-72
2023/03/15 05:18:55;;;;;;;16.07;6.73;;;;;;;4.75;66.82;99714.09;124439;1099;104233;-72
2023/03/15 05:21:47;;;;;;;21.87;7.70;;;;;;;4.84;67.07;99730.11;124593;1099;104207;-73
2023/03/15 05:24:39;;;;;;;13.80;7.07;;;;;;;4.93;66.60;99733.98;124508;1099;104265;-74
2023/03/15 05:27:40;;;;;;;15.03;7.53;;;;;;;5.00;67.23;99736.02;124449;1099;103679;-73
2023/03/15 05:30:30;;;;;;;19.33;7.37;;;;;;;5.08;66.87;99724.28;125004;1099;104351;-74
2023/03/15 05:33:23;;;;;;;16.20;7.07;;;;;;;5.16;67.09;99727.23;124651;1099;103108;-73
2023/03/15 05:36:16;;;;;;;15.80;7.03;;;;;;;5.30;67.26;99726.13;124839;1099;104220;-72
2023/03/15 05:39:23;;;;;;;18.40;7.73;;;;;;;5.40;68.08;99728.29;124636;1099;104338;-75
2023/03/15 05:42:20;;;;;;;15.93;7.10;;;;;;;5.47;67.10;99725.95;124816;1099;104173;-73
2023/03/15 05:45:05;;;;;;;12.80;6.67;;;;;;;5.55;67.66;99722.00;124414;1099;104280;-72
2023/03/15 05:47:55;;;;;;;14.67;7.07;;;;;;;5.63;69.09;99718.00;124926;1098;104179;-73
2023/03/15 05:50:55;;;;;;;15.07;6.57;;;;;;;5.68;68.79;99721.68;124340;1102;104450;-73
2023/03/15 05:53:41;;;;;;;15.10;7.93;;;;;;;5.69;68.47;99723.47;124945;1099;102022;-75
2023/03/15 05:56:31;;;;;;;15.37;7.63;;;;;;;5.73;68.60;99728.00;124682;1098;104380;-71
2023/03/15 05:59:31;;;;;;;17.70;7.07;;;;;;;5.80;68.55;99736.95;124532;1099;101977;-73
2023/03/15 06:02:09;;;;;;;14.87;7.10;;;;;;;5.82;69.57;99737.02;124945;1099;103934;-75
2023/03/15 06:04:46;;;;;;;16.27;7.10;;;;;;;5.81;68.71;99745.64;124399;1102;104252;-73
2023/03/15 06:07:21;;;;;;;13.30;6.35;;;;;;;5.76;70.33;99748.05;124933;1099;118411;-77
2023/03/15 06:09:52;;;;;;;14.10;6.47;;;;;;;5.77;70.36;99744.63;124589;1099;104246;-73
2023/03/15 06:12:24;;;;;;;13.60;7.00;;;;;;;5.82;71.09;99752.64;125007;1099;104287;-77
2023/03/15 06:14:56;;;;;;;14.67;6.50;;;;;;;5.86;69.79;99747.63;124583;1099;104249;-75
2023/03/15 06:17:27;;;;;;;17.27;7.70;;;;;;;5.89;69.52;99771.19;124733;1099;103194;-70
2023/03/15 06:20:00;;;;;;;13.37;6.87;;;;;;;5.87;72.08;99761.52;124607;1099;104360;-75
2023/03/15 06:22:55;;;;;;;17.57;7.77;;;;;;;5.91;69.46;99768.66;124888;1099;103049;-73
2023/03/15 06:25:35;;;;;;;18.27;8.10;;;;;;;5.97;69.06;99755.02;126220;1099;102865;-78
2023/03/15 06:28:06;;;;;;;15.13;7.53;;;;;;;6.01;69.84;99755.20;126607;1099;101868;-74
2023/03/15 06:30:39;;;;;;;15.57;7.77;;;;;;;6.07;69.64;99750.26;126348;1099;102948;-74
2023/03/15 06:33:11;;;;;;;16.83;7.23;;;;;;;6.16;69.21;99748.88;125959;1099;103705;-78
2023/03/15 06:35:45;;;;;;;15.13;7.37;;;;;;;6.27;69.23;99744.99;125936;1099;102366;-79
2023/03/15 06:38:17;;;;;;;16.52;7.53;;;;;;;6.35;68.98;99743.58;124945;1099;102762;-71
2023/03/15 06:40:49;;;;;;;17.47;7.10;;;;;;;6.42;68.87;99749.91;125113;1099;102983;-79
2023/03/15 06:43:22;;;;;;;13.57;6.47;;;;;;;6.47;69.42;99748.41;125165;1099;103121;-78
2023/03/15 06:45:57;;;;;;;16.60;6.78;;;;;;;6.50;69.06;99743.31;125298;1099;104200;-79
2023/03/15 06:48:30;;;;;;;14.80;6.83;;;;;;;6.56;68.45;99745.26;125087;1099;107058;-78
2023/03/15 06:51:04;;;;;;;16.90;6.85;;;;;;;6.59;69.33;99742.77;125017;1099;104156;-75
2023/03/15 06:53:36;;;;;;;13.10;6.30;;;;;;;6.68;68.82;99743.13;125026;1099;103616;-73
2023/03/15 06:56:09;;;;;;;14.30;6.57;;;;;;;6.74;69.07;99735.55;125197;1099;104166;-75
2023/03/15 06:58:40;;;;;;;14.73;6.10;;;;;;;6.77;68.96;99727.84;125262;1099;102624;-74
2023/03/15 07:01:13;;;;;;;15.17;6.73;;;;;;;6.84;68.68;99722.05;125521;1099;103075;-73
2023/03/15 07:03:45;;;;;;;14.23;6.17;;;;;;;6.91;69.72;99719.67;125461;1099;102018;-76
2023/03/15 07:06:19;;;;;;;13.67;5.73;;;;;;;7.01;68.48;99711.34;125350;1099;104166;-73
2023/03/15 07:08:51;;;;;;;13.27;5.73;;;;;;;7.15;68.72;99719.69;125337;1098;102958;-73
2023/03/15 07:11:23;;;;;;;12.43;5.13;;;;;;;7.25;68.79;99719.20;125503;1098;102502;-77
2023/03/15 07:13:55;;;;;;;8.93;5.00;;;;;;;7.36;68.48;99716.98;125376;1099;103003;-78
2023/03/15 07:16:30;;;;;;;11.20;5.37;;;;;;;7.52;68.27;99719.28;124259;1099;104166;-72
2023/03/15 07:19:01;;;;;;;10.63;4.57;;;;;;;7.58;67.81;99707.31;124747;1099;111322;-72
2023/03/15 07:21:33;;;;;;;9.40;4.40;;;;;;;7.64;67.96;99710.13;124256;1099;104162;-73
2023/03/15 07:24:10;;;;;;;8.43;4.20;;;;;;;7.71;67.40;99699.95;124770;1099;104351;-74
2023/03/15 07:26:45;;;;;;;11.33;4.90;;;;;;;7.82;67.32;99689.88;124254;1099;104235;-72
2023/03/15 07:29:17;;;;;;;10.20;3.80;;;;;;;7.83;67.04;99675.08;124567;1098;104242;-72
2023/03/15 07:31:49;;;;;;;10.87;3.90;;;;;;;7.85;66.82;99663.86;124555;1099;104293;-71
2023/03/15 07:34:20;;;;;;;7.47;3.80;;;;;;;7.97;66.27;99659.86;124597;1099;104220;-70
2023/03/15 07:36:52;;;;;;;10.37;3.80;;;;;;;8.07;66.54;99661.92;124608;1099;104278;-70
2023/03/15 07:39:25;;;;;;;9.67;3.70;;;;;;;8.19;66.23;99664.92;124572;1098;104259;-71
2023/03/15 07:41:57;;;;;;;6.60;3.70;;;;;;;8.38;65.89;99668.13;124610;1099;104214;-73
2023/03/15 07:44:37;;;;;;;10.03;3.50;;;;;;;8.41;64.97;99668.22;124241;1099;104249;-73
2023/03/15 07:47:15;;;;;;;5.97;3.27;;;;;;;8.42;64.80;99659.55;124679;1099;104255;-74
2023/03/15 07:49:47;;;;;;;6.23;3.37;;;;;;;8.51;65.19;99664.19;124622;1099;117921;-73
2023/03/15 07:52:20;;;;;;;9.77;3.30;;;;;;;8.63;64.53;99652.39;124566;1099;104248;-73
2023/03/15 07:54:57;;;;;;;10.77;3.40;;;;;;;8.68;64.78;99636.84;124613;1099;104195;-73
2023/03/15 07:57:32;;;;;;;6.37;3.00;;;;;;;8.82;65.06;99632.01;124586;1099;104230;-73
2023/03/15 08:00:05;;;;;;;9.60;3.50;;;;;;;8.89;64.77;99626.09;124558;1099;104233;-73
2023/03/15 08:02:43;;;;;;;11.30;3.10;;;;;;;8.99;64.22;99628.13;124666;1099;102079;-73
2023/03/15 08:05:18;;;;;;;9.10;3.07;;;;;;;9.06;64.35;99629.18;124595;1099;102055;-72
2023/03/15 08:07:51;;;;;;;7.80;3.10;;;;;;;9.14;62.57;99632.02;124624;1099;104271;-74
2023/03/15 08:10:22;;;;;;;10.07;3.60;;;;;;;9.17;63.47;99634.71;124554;1099;112514;-73
2023/03/15 08:12:57;;;;;;;9.37;3.30;;;;;;;9.22;63.41;99640.08;124252;1099;101971;-74
2023/03/15 08:15:31;;;;;;;6.90;3.10;;;;;;;9.37;63.63;99631.77;124646;1099;104232;-75
2023/03/15 08:18:05;;;;;;;9.97;3.70;;;;;;;9.48;63.45;99628.56;125913;1098;101795;-77
2023/03/15 08:20:36;;;;;;;9.70;3.20;;;;;;;9.58;63.37;99634.91;124892;1099;104265;-74
2023/03/15 08:23:15;;;;;;;6.67;3.08;;;;;;;9.68;63.32;99628.20;124774;1099;102334;-75
2023/03/15 08:25:47;;;;;;;5.67;3.00;;;;;;;9.81;61.97;99635.50;124459;1099;104192;-74
2023/03/15 08:28:20;;;;;;;7.43;3.53;;;;;;;9.92;62.28;99637.51;124996;1099;101913;-77
2023/03/15 08:30:51;;;;;;;;;;;;;;;9.99;61.01;99652.55;124787;1099;108055;-74
2023/03/15 08:33:23;;;;;;;10.07;3.23;;;;;;;10.11;62.11;99659.80;124958;1099;104082;-81
2023/03/15 08:35:57;;;;;;;6.13;3.43;;;;;;;10.15;60.41;99667.78;126339;1098;102776;-78
2023/03/15 08:38:29;;;;;;;4.17;2.70;;;;;;;10.21;60.64;99644.33;125121;1098;104156;-75
2023/03/15 08:41:02;;;;;;;11.77;3.40;;;;;;;10.30;61.00;99650.63;124732;1099;104235;-76
2023/03/15 08:43:33;;;;;;;6.53;3.30;;;;;;;10.39;60.56;99656.13;124883;1099;104251;-73
2023/03/15 08:46:06;;;;;;;7.97;3.57;;;;;;;10.48;60.66;99647.59;124580;1099;102036;-72
2023/03/15 08:48:37;;;;;;;10.47;3.57;;;;;;;10.56;60.60;99646.89;124633;1099;104259;-73
2023/03/15 08:51:09;;;;;;;8.27;3.10;;;;;;;10.67;59.57;99651.50;124602;1099;104389;-74
2023/03/15 08:53:48;;;;;;;5.63;2.93;;;;;;;10.69;59.09;99663.81;124647;1099;104335;-73
2023/03/15 08:56:22;;;;;;;6.45;2.70;;;;;;;10.76;57.81;99655.19;124643;1099;103189;-75
2023/03/15 08:58:58;;;;;;;6.23;2.63;;;;;;;10.85;58.17;99659.77;124830;1099;104191;-76
2023/03/15 09:01:30;;;;;;;11.27;3.23;;;;;;;10.93;58.50;99655.55;124222;1099;112631;-72
2023/03/15 09:04:04;;;;;;;7.33;3.17;;;;;;;11.03;58.56;99663.61;124665;1099;104201;-73
2023/03/15 09:09:27;;;;;;;10.10;3.20;;;;;;;11.09;57.72;99654.11;124675;1099;104207;-74
2023/03/15 09:11:59;;;;;;;9.07;3.30;;;;;;;11.24;57.84;99650.92;124208;1099;104157;-74
2023/03/15 09:14:30;;;;;;;10.40;3.00;;;;;;;11.24;56.89;99655.30;124613;1099;104191;-72
2023/03/15 09:17:04;;;;;;;7.67;3.40;;;;;;;11.32;56.48;99651.06;125926;1099;101901;-72
2023/03/15 09:19:38;;;;;;;8.43;3.20;;;;;;;11.22;56.24;99649.11;124574;1099;104232;-74
2023/03/15 09:22:12;;;;;;;9.40;3.80;;;;;;;11.25;56.54;99660.58;124156;1099;104192;-73
2023/03/15 09:24:45;;;;;;;8.13;3.80;;;;;;;11.34;56.53;99654.59;124665;1099;101852;-73
2023/03/15 09:27:17;;;;;;;8.97;3.90;;;;;;;11.41;56.86;99661.75;124649;1098;104242;-73
2023/03/15 09:29:49;;;;;;;12.95;4.10;;;;;;;11.58;56.73;99669.08;124713;1099;104265;-73
2023/03/15 09:32:20;;;;;;;7.63;3.67;;;;;;;11.82;56.31;99671.23;124638;1099;104220;-72
2023/03/15 09:34:53;;;;;;;10.50;3.90;;;;;;;11.91;57.00;99673.15;124647;1099;104201;-76
2023/03/15 09:37:39;;;;;;;9.83;3.73;;;;;;;11.95;56.41;99669.73;124823;1098;104242;-76
2023/03/15 09:40:26;;;;;;;12.87;4.40;;;;;;;11.95;56.70;99677.61;124686;1099;104242;-81
2023/03/15 09:43:54;;;;;;;10.33;3.70;;;;;;;11.69;55.83;99684.16;124750;1099;104224;-76
2023/03/15 09:46:30;;;;;;;9.27;4.50;;;;;;;11.42;56.51;99695.05;124710;1099;101948;-73
2023/03/15 09:49:11;;;;;;;14.67;4.67;;;;;;;11.29;56.87;99691.28;124577;1099;104082;-75
2023/03/15 09:51:47;;;;;;;;;;;;;;;11.18;56.94;99695.44;124729;1099;104241;-74
2023/03/15 09:54:28;;;;;;;9.43;4.50;;;;;;;11.13;57.29;99697.09;124676;1099;104219;-74
2023/03/15 09:57:38;;;;;;;8.37;4.23;;;;;;;10.89;57.50;99700.07;124663;1098;104271;-74
2023/03/15 10:00:17;;;;;;;13.77;5.23;;;;;;;10.70;57.78;99710.16;124672;1098;104245;-73
2023/03/15 10:03:00;;;;;;;11.93;5.13;;;;;;;10.57;57.90;99695.89;124675;1099;107795;-74
2023/03/15 10:05:46;;;;;;;14.90;6.13;;;;;;;10.38;58.07;99705.08;124782;1099;102325;-74
2023/03/15 10:08:21;;;;;;;10.33;5.60;;;;;;;10.18;58.78;99693.20;124806;1098;104265;-75
2023/03/15 10:11:00;;;;;;;16.63;6.00;;;;;;;10.07;58.29;99699.05;124634;1099;104316;-77
2023/03/15 10:13:47;;;;;;;11.07;4.77;;;;;;;10.00;59.03;99696.23;124466;1100;104166;-78
2023/03/15 10:16:32;;;;;;;12.30;5.50;;;;;;;9.96;59.18;99710.13;124189;1099;104380;-75
2023/03/15 10:19:17;;;;;;;13.87;5.70;;;;;;;9.87;58.96;99709.02;124741;1099;104268;-75
2023/03/15 10:21:58;;;;;;;14.07;5.73;;;;;;;9.81;59.24;99700.12;124286;1099;104159;-76
2023/03/15 10:24:40;;;;;;;15.03;5.90;;;;;;;9.75;59.68;99707.83;124692;1098;104232;-77
2023/03/15 10:27:38;;;;;;;14.20;5.90;;;;;;;9.68;59.54;99705.05;124535;1099;104163;-74
2023/03/15 10:30:20;;;;;;;15.13;6.33;;;;;;;9.63;60.43;99695.28;124599;1099;104369;-79
2023/03/15 10:32:58;;;;;;;12.47;5.57;;;;;;;9.46;62.39;99700.09;124696;1099;104290;-73
2023/03/15 10:35:31;;;;;;;14.80;6.53;;;;;;;9.40;60.54;99692.06;124696;1099;104718;-70
2023/03/15 10:38:03;;;;;;;18.27;6.53;;;;;;;9.35;60.62;99692.81;124246;1100;104239;-72
2023/03/15 10:40:46;;;;;;;16.17;6.63;;;;;;;9.37;60.58;99692.86;124496;1099;102380;-78
2023/03/15 10:43:30;;;;;;;17.00;7.07;;;;;;;9.39;60.96;99691.16;125081;1099;103183;-78
2023/03/15 10:46:23;;;;;;;16.77;7.17;;;;;;;9.37;60.75;99682.39;125420;1102;102719;-80
2023/03/15 10:48:59;;;;;;;17.17;6.90;;;;;;;9.36;61.19;99683.22;125255;1100;104182;-83
2023/03/15 10:51:38;;;;;;;17.43;6.30;;;;;;;9.35;61.95;99687.58;125336;1099;102791;-78
2023/03/15 10:54:20;;;;;;;20.77;6.53;;;;;;;9.33;61.82;99675.28;124269;1099;118997;-78
2023/03/15 10:57:04;;;;;;;13.00;5.97;;;;;;;9.34;62.19;99682.30;124427;1102;104249;-74
2023/03/15 10:59:53;;;;;;;11.73;5.57;;;;;;;9.32;62.03;99668.29;125432;1099;102788;-80
2023/03/15 11:02:30;;;;;;;15.17;5.80;;;;;;;9.30;62.44;99662.10;125274;1102;102312;-81
2023/03/15 11:05:20;;;;;;;14.60;6.33;;;;;;;9.29;62.06;99673.44;124903;1099;102262;-75
2023/03/15 11:07:58;;;;;;;13.30;6.20;;;;;;;9.30;61.85;99665.63;125360;1099;103482;-79
2023/03/15 11:10:35;;;;;;;12.73;5.20;;;;;;;9.25;63.85;99669.83;125342;1099;102339;-79
2023/03/15 11:13:14;;;;;;;12.23;5.50;;;;;;;9.23;63.57;99662.80;125229;1102;104239;-75
2023/03/15 11:16:00;;;;;;;14.50;6.13;;;;;;;9.24;63.67;99659.31;125077;1099;104313;-79
2023/03/15 11:18:35;;;;;;;13.93;6.00;;;;;;;9.22;63.01;99663.63;125299;1099;104188;-80
2023/03/15 11:21:14;;;;;;;13.83;6.03;;;;;;;9.22;64.65;99654.04;124762;1100;104265;-75
2023/03/15 11:23:50;;;;;;;15.40;5.87;;;;;;;9.24;63.95;99654.99;125286;1100;102266;-75
2023/03/15 11:26:38;;;;;;;15.80;6.23;;;;;;;9.23;63.59;99647.97;124551;1102;104169;-77
2023/03/15 11:29:21;;;;;;;13.23;5.90;;;;;;;9.22;63.85;99638.33;124579;1102;101919;-78
2023/03/15 11:31:58;;;;;;;15.13;6.17;;;;;;;9.21;64.59;99628.73;124326;1099;102233;-74
2023/03/15 11:34:44;;;;;;;10.08;5.03;;;;;;;9.21;65.61;99628.73;124317;1099;104182;-77
2023/03/15 11:37:23;;;;;;;13.73;5.77;;;;;;;9.12;65.67;99628.48;124392;1099;104261;-75
2023/03/15 11:40:02;;;;;;;10.67;5.00;;;;;;;8.99;65.47;99614.14;124695;1099;104229;-74
2023/03/15 11:42:47;;;;;;;14.13;5.30;;;;;;;9.00;65.73;99626.39;124255;1099;103476;-74
2023/03/15 11:45:26;;;;;;;10.83;5.50;;;;;;;8.95;65.84;99622.77;124577;1099;102068;-73
2023/03/15 11:48:03;;;;;;;14.63;5.33;;;;;;;8.96;66.26;99614.97;124187;1099;104188;-75
2023/03/15 11:50:54;;;;;;;14.23;5.67;;;;;;;8.99;65.96;99619.37;124599;1099;102525;-75
2023/03/15 11:53:32;;;;;;;12.77;5.67;;;;;;;8.99;65.84;99627.23;124618;1098;102781;-74
2023/03/15 11:56:23;;;;;;;12.90;5.57;;;;;;;9.02;66.54;99629.05;124636;1099;104278;-73
2023/03/15 11:59:11;;;;;;;11.93;5.33;;;;;;;9.02;66.39;99629.05;124669;1099;104312;-72
2023/03/15 12:01:48;;;;;;;12.97;5.20;;;;;;;9.05;65.71;99611.70;124634;1099;104364;-73
2023/03/15 12:04:42;;;;;;;12.20;5.47;;;;;;;9.05;67.65;99614.31;124262;1099;102946;-76
2023/03/15 12:07:41;;;;;;;14.10;6.47;;;;;;;9.03;66.80;99613.39;124779;1099;101924;-72